Aviation Digital Data Service (ADDS)

Output produced by TAFs form (1130 UTC 22 September 2017)
found at http://aviationweather.gov/adds/tafs/
 
KEGE 220521Z 2206/2306 12006KT P6SM FEW250 WS020/22035KT 
     FM220900 19008KT P6SM FEW130 FEW250 WS020/22040KT 
     FM221500 22010G18KT P6SM FEW080 SCT200 
     FM221700 22016G27KT P6SM FEW080 SCT150 
     FM230200 21006KT P6SM FEW080 SCT110 AMD LTD TO CLD VIS AND WIND TIL 221300